Time;durP1;ratioP1;P1;durP2;ratioP2;P2;SDS_P1;SDS_P2;PMS_P1;PMS_P2;Temp;Humidity;BMP_temperature;BMP_pressure;BME280_temperature;BME280_humidity;BME280_pressure;Samples;Min_cycle;Max_cycle;Signal;HPM_P1;HPM_P2
2021/12/20 00:00:15;;;;;;;;;7.00;6.00;;;;;8.35;47.58;98453.47;6122324;28;96490;-65
2021/12/20 00:03:18;;;;;;;;;7.00;7.00;;;;;8.32;47.84;98443.97;6120775;28;97162;-66
2021/12/20 00:06:22;;;;;;;;;6.80;6.00;;;;;8.30;47.83;98443.38;6132725;28;97523;-66
2021/12/20 00:09:27;;;;;;;;;7.00;6.00;;;;;8.30;48.13;98442.56;6125533;28;96724;-66
2021/12/20 00:12:31;;;;;;;;;8.00;7.60;;;;;8.30;47.82;98458.66;6117259;28;97024;-65
2021/12/20 00:15:34;;;;;;;;;7.40;6.60;;;;;8.36;47.62;98463.97;6087510;28;96307;-65
2021/12/20 00:18:38;;;;;;;;;9.40;8.00;;;;;8.39;47.79;98468.09;6118631;28;97461;-65
2021/12/20 00:21:41;;;;;;;;;8.00;6.50;;;;;8.27;47.78;98468.75;6117283;28;97112;-66
2021/12/20 00:24:46;;;;;;;;;7.00;6.00;;;;;8.32;47.74;98470.00;6099425;28;96826;-66
2021/12/20 00:27:50;;;;;;;;;7.00;7.00;;;;;8.35;47.74;98480.34;6118542;28;97337;-67
2021/12/20 00:30:53;;;;;;;;;7.60;6.60;;;;;8.31;47.89;98479.91;6100878;28;96939;-65
2021/12/20 00:33:56;;;;;;;;;8.00;6.00;;;;;8.34;47.99;98484.03;6102443;28;97842;-66
2021/12/20 00:37:04;;;;;;;;;9.20;7.20;;;;;8.36;48.06;98490.84;6116972;28;96526;-66
2021/12/20 00:40:21;;;;;;;;;7.20;7.00;;;;;8.38;48.29;98487.94;6119158;28;97904;-67
2021/12/20 00:43:24;;;;;;;;;7.00;7.00;;;;;8.03;48.22;98440.00;6141174;28;97359;-66
2021/12/20 00:46:28;;;;;;;;;7.00;7.00;;;;;8.28;48.26;98483.84;6117748;28;100041;-66
2021/12/20 00:49:32;;;;;;;;;8.00;8.00;;;;;8.22;48.71;98481.19;6099248;28;96480;-67
2021/12/20 00:52:35;;;;;;;;;11.00;10.00;;;;;8.17;48.84;98483.69;6098255;28;96693;-66
2021/12/20 00:55:40;;;;;;;;;10.40;9.40;;;;;8.25;48.71;98488.84;6099802;28;97129;-66
2021/12/20 00:58:43;;;;;;;;;11.00;9.00;;;;;8.30;48.75;98490.91;6138591;28;97169;-65
2021/12/20 01:01:46;;;;;;;;;11.40;11.00;;;;;8.23;48.77;98489.03;6140304;28;97421;-66
2021/12/20 01:04:50;;;;;;;;;11.00;8.00;;;;;8.25;48.92;98491.53;6140604;28;96515;-65
2021/12/20 01:07:57;;;;;;;;;9.00;8.00;;;;;8.22;48.99;98492.75;6126245;28;97585;-66
2021/12/20 01:11:01;;;;;;;;;12.00;12.00;;;;;8.21;48.79;98485.72;6097513;28;97788;-66
2021/12/20 01:14:05;;;;;;;;;10.00;9.60;;;;;8.12;48.97;98484.34;6097781;28;96726;-65
2021/12/20 01:17:08;;;;;;;;;10.00;9.00;;;;;8.09;49.23;98482.09;6124310;28;97322;-66
2021/12/20 01:20:12;;;;;;;;;11.25;10.00;;;;;7.97;49.37;98478.44;6138383;28;97431;-66
2021/12/20 01:23:16;;;;;;;;;10.00;9.50;;;;;7.90;49.45;98475.00;6137449;28;97371;-66
2021/12/20 01:26:21;;;;;;;;;13.00;13.00;;;;;7.95;49.27;98485.09;6139544;28;97420;-67
2021/12/20 01:29:25;;;;;;;;;11.80;11.40;;;;;8.03;49.37;98484.81;6115863;28;96438;-65
2021/12/20 01:32:29;;;;;;;;;11.60;10.60;;;;;8.00;49.54;98482.56;6114687;28;98105;-67
2021/12/20 01:35:32;;;;;;;;;12.00;10.00;;;;;8.02;49.55;98467.88;6115608;28;97121;-66
2021/12/20 01:38:35;;;;;;;;;14.00;12.20;;;;;7.93;49.67;98485.28;6118130;28;97081;-66
2021/12/20 01:41:42;;;;;;;;;11.00;10.00;;;;;7.80;49.67;98486.19;6138552;28;97471;-66
2021/12/20 01:44:45;;;;;;;;;11.00;9.60;;;;;7.87;49.80;98478.09;6119832;28;96704;-66
2021/12/20 01:47:52;;;;;;;;;10.00;8.75;;;;;7.87;49.69;98482.66;6139542;28;96726;-66
2021/12/20 01:51:18;;;;;;;;;11.60;9.60;;;;;7.82;49.66;98489.47;6117561;28;97465;-66
2021/12/20 01:54:22;;;;;;;;;10.00;9.80;;;;;7.69;49.82;98459.19;6113620;28;96690;-64
2021/12/20 01:57:26;;;;;;;;;11.60;9.20;;;;;7.80;49.90;98480.81;6136451;28;97516;-65
2021/12/20 02:00:31;;;;;;;;;10.00;10.00;;;;;7.73;49.78;98488.06;6144852;28;96432;-64
2021/12/20 02:03:37;;;;;;;;;12.00;11.00;;;;;7.80;49.60;98486.19;6140494;28;97820;-66
2021/12/20 02:06:45;;;;;;;;;10.00;9.60;;;;;7.78;49.39;98488.25;6144261;28;96541;-64
2021/12/20 02:09:49;;;;;;;;;10.00;9.20;;;;;7.71;49.41;98457.97;6128454;28;98922;-64
2021/12/20 02:12:54;;;;;;;;;13.00;13.00;;;;;7.90;49.28;98480.34;6125802;28;97417;-65
2021/12/20 02:15:58;;;;;;;;;11.00;11.00;;;;;7.77;49.34;98483.91;6117331;28;97828;-65
2021/12/20 02:19:03;;;;;;;;;11.20;9.80;;;;;7.50;49.45;98452.88;6116008;28;96714;-64
2021/12/20 02:22:08;;;;;;;;;12.00;11.00;;;;;7.81;49.38;98484.34;6100842;28;97166;-65
2021/12/20 02:25:11;;;;;;;;;13.00;12.60;;;;;7.70;49.61;98488.50;6119498;28;97634;-64
2021/12/20 02:28:16;;;;;;;;;13.00;11.00;;;;;7.61;49.49;98449.53;6118916;28;96322;-65
2021/12/20 02:38:06;;;;;;;;;15.00;12.40;;;;;7.83;49.40;98488.44;6119579;28;96385;-66
2021/12/20 02:41:14;;;;;;;;;11.20;10.20;;;;;7.88;49.37;98492.31;6119521;28;96514;-65
2021/12/20 02:44:19;;;;;;;;;10.00;9.75;;;;;7.68;49.48;98460.22;6143067;28;97599;-64
2021/12/20 02:47:28;;;;;;;;;12.80;11.00;;;;;7.87;49.39;98491.50;6125345;28;97106;-64
2021/12/20 02:50:32;;;;;;;;;12.00;11.00;;;;;7.79;49.68;98489.06;6119856;28;97110;-65
2021/12/20 02:53:37;;;;;;;;;11.00;10.20;;;;;7.78;49.83;98500.84;6117681;28;96667;-65
2021/12/20 02:56:41;;;;;;;;;13.00;12.00;;;;;7.77;49.64;98494.66;6119043;28;97020;-66
2021/12/20 02:59:44;;;;;;;;;11.33;10.33;;;;;7.74;49.81;98486.19;6122517;28;97214;-64
2021/12/20 03:02:48;;;;;;;;;14.00;12.60;;;;;7.79;49.70;98497.94;6124766;28;98929;-65
2021/12/20 03:05:51;;;;;;;;;13.00;12.50;;;;;7.80;49.63;98496.09;6122693;28;96551;-65
2021/12/20 03:08:58;;;;;;;;;12.60;11.00;;;;;7.53;49.84;98467.72;6140960;28;97406;-65
2021/12/20 03:12:04;;;;;;;;;13.00;12.00;;;;;7.68;49.78;98487.06;6141894;28;97605;-65
2021/12/20 03:15:13;;;;;;;;;11.50;10.50;;;;;7.57;50.03;98501.16;6122019;28;97721;-65
2021/12/20 03:18:16;;;;;;;;;13.20;11.00;;;;;7.70;49.84;98501.91;6143691;28;97475;-64
2021/12/20 03:21:19;;;;;;;;;11.20;11.00;;;;;7.74;49.68;98489.72;6141359;28;97204;-64
2021/12/20 03:24:24;;;;;;;;;11.00;10.00;;;;;7.67;49.74;98496.97;6134616;28;96676;-65
2021/12/20 03:27:27;;;;;;;;;12.40;11.40;;;;;7.60;49.90;98496.19;6134694;28;96356;-64
2021/12/20 03:30:31;;;;;;;;;10.40;10.40;;;;;7.53;49.73;98479.25;6124946;28;100462;-64
2021/12/20 03:33:34;;;;;;;;;12.00;11.00;;;;;7.66;49.60;98489.13;6143763;28;96484;-66
2021/12/20 03:36:38;;;;;;;;;10.60;9.00;;;;;7.64;49.60;98493.88;6113688;28;98727;-64
2021/12/20 03:39:43;;;;;;;;;12.00;11.00;;;;;7.74;49.38;98496.94;6100992;28;98416;-64
2021/12/20 03:42:46;;;;;;;;;12.00;11.00;;;;;7.58;49.38;98498.22;6121256;28;97537;-65
2021/12/20 03:45:56;;;;;;;;;11.60;10.60;;;;;7.30;49.88;98430.69;6124100;28;97522;-64
2021/12/20 03:49:00;;;;;;;;;10.80;8.20;;;;;7.62;49.40;98485.25;6123311;28;97356;-64
2021/12/20 03:52:05;;;;;;;;;10.00;10.00;;;;;7.63;49.46;98485.00;6142081;28;97112;-65
2021/12/20 03:55:11;;;;;;;;;10.50;8.25;;;;;7.70;49.23;98485.81;6141971;28;97517;-65
2021/12/20 03:58:15;;;;;;;;;11.00;9.00;;;;;7.73;49.22;98471.97;6143495;28;96832;-65
2021/12/20 04:01:18;;;;;;;;;12.40;11.00;;;;;7.18;49.88;98435.06;6125110;28;98149;-65
2021/12/20 04:04:22;;;;;;;;;10.50;10.00;;;;;7.46;49.59;98474.97;6107929;28;99036;-65
2021/12/20 04:07:26;;;;;;;;;12.00;11.00;;;;;7.50;49.56;98474.34;6139494;28;97870;-66
2021/12/20 04:10:31;;;;;;;;;11.50;11.00;;;;;7.48;49.79;98475.59;6140483;28;96381;-65
2021/12/20 04:13:34;;;;;;;;;9.00;9.00;;;;;7.32;49.75;98455.44;6140784;28;97481;-65
2021/12/20 04:16:37;;;;;;;;;12.00;11.00;;;;;7.55;49.68;98476.38;6130401;28;96646;-66
2021/12/20 04:19:41;;;;;;;;;10.00;9.00;;;;;7.50;49.69;98482.38;6140059;28;97497;-65
2021/12/20 04:22:44;;;;;;;;;11.00;10.00;;;;;7.48;49.77;98478.28;6138366;28;96705;-66
2021/12/20 04:25:49;;;;;;;;;9.80;9.80;;;;;7.41;49.67;98464.88;6137531;28;97867;-66
2021/12/20 04:28:52;;;;;;;;;9.80;9.00;;;;;7.43;49.77;98486.94;6118964;28;98786;-66
2021/12/20 04:31:56;;;;;;;;;8.40;8.00;;;;;7.41;49.61;98475.59;6140694;28;97049;-66
2021/12/20 04:34:59;;;;;;;;;10.00;9.00;;;;;7.21;49.80;98472.97;6128693;28;96998;-66
2021/12/20 04:38:04;;;;;;;;;9.00;8.00;;;;;7.36;49.43;98468.19;6115938;28;97406;-66
2021/12/20 04:41:08;;;;;;;;;8.60;8.60;;;;;7.25;49.60;98457.28;6117056;28;96467;-66
2021/12/20 04:44:11;;;;;;;;;9.20;8.00;;;;;7.27;49.50;98476.69;6114122;28;96735;-66
2021/12/20 04:47:15;;;;;;;;;8.00;8.00;;;;;7.41;49.27;98478.28;6124033;28;99450;-66
2021/12/20 04:50:18;;;;;;;;;9.50;9.00;;;;;7.45;49.14;98492.91;6121607;28;98443;-66
2021/12/20 04:53:21;;;;;;;;;9.40;8.00;;;;;7.36;49.28;98499.56;6153414;28;96843;-66
2021/12/20 04:56:26;;;;;;;;;8.00;8.00;;;;;7.45;48.97;98500.13;6108688;28;97707;-66
2021/12/20 04:59:29;;;;;;;;;7.00;7.00;;;;;7.38;49.28;98509.03;6141997;28;96746;-66
2021/12/20 05:02:35;;;;;;;;;7.20;7.20;;;;;7.37;49.25;98506.56;6137538;28;96666;-66
2021/12/20 05:05:38;;;;;;;;;6.60;6.20;;;;;7.52;49.09;98503.63;6139654;28;97583;-65
2021/12/20 05:08:48;;;;;;;;;7.60;7.60;;;;;7.54;48.90;98501.56;6139094;28;98122;-66
2021/12/20 05:12:01;;;;;;;;;7.00;6.00;;;;;7.51;48.85;98499.31;6118332;28;98776;-66
2021/12/20 05:15:05;;;;;;;;;6.00;6.00;;;;;7.31;49.14;98484.09;6145959;28;97220;-67
2021/12/20 05:18:10;;;;;;;;;8.00;8.00;;;;;7.44;49.27;98491.28;6106269;28;96619;-65
2021/12/20 05:21:13;;;;;;;;;7.00;7.00;;;;;7.45;49.17;98492.09;6139402;28;97502;-66
2021/12/20 05:24:16;;;;;;;;;8.00;8.00;;;;;7.45;49.41;98492.91;6122581;28;98050;-66
2021/12/20 05:27:21;;;;;;;;;8.00;7.00;;;;;7.33;49.94;98497.31;6120293;28;98369;-65
2021/12/20 05:30:24;;;;;;;;;7.20;7.00;;;;;7.34;49.98;98501.59;6137121;28;97388;-66
2021/12/20 05:33:28;;;;;;;;;8.50;7.00;;;;;7.37;49.98;98511.94;6138195;28;96455;-65
2021/12/20 05:36:32;;;;;;;;;9.00;8.00;;;;;7.22;49.94;98501.44;6140328;28;97143;-65
2021/12/20 05:39:35;;;;;;;;;6.80;6.80;;;;;7.44;49.77;98518.09;6105723;28;98829;-66
2021/12/20 05:42:41;;;;;;;;;5.50;5.50;;;;;7.38;49.68;98514.38;6140990;28;97090;-65
2021/12/20 05:45:44;;;;;;;;;6.50;6.50;;;;;7.40;49.78;98506.13;6139872;28;97385;-67
2021/12/20 05:48:47;;;;;;;;;7.00;7.00;;;;;7.29;50.07;98504.09;6138157;28;96692;-65
2021/12/20 05:51:50;;;;;;;;;7.00;5.20;;;;;7.45;49.88;98524.28;6142039;28;96666;-65
2021/12/20 05:54:54;;;;;;;;;8.00;8.00;;;;;7.35;49.90;98522.88;6145220;28;96500;-66
2021/12/20 05:57:58;;;;;;;;;8.40;8.00;;;;;7.50;49.87;98527.16;6125916;28;96855;-66
2021/12/20 06:01:02;;;;;;;;;9.50;9.00;;;;;7.56;49.38;98527.16;6118331;28;99724;-66
2021/12/20 06:04:05;;;;;;;;;10.00;9.40;;;;;7.55;49.16;98532.72;6117011;28;96818;-68
2021/12/20 06:07:09;;;;;;;;;9.00;8.00;;;;;7.65;49.04;98533.09;6123484;28;99562;-68
2021/12/20 06:10:15;;;;;;;;;9.00;9.00;;;;;7.55;48.92;98530.03;6141542;28;97066;-66
2021/12/20 06:13:20;;;;;;;;;8.00;8.00;;;;;7.52;49.55;98547.38;6134166;28;98015;-66
2021/12/20 06:16:24;;;;;;;;;9.00;7.60;;;;;7.61;49.39;98561.38;6121688;28;96858;-66
2021/12/20 06:19:28;;;;;;;;;8.00;8.00;;;;;7.66;49.40;98562.41;6134658;28;98906;-66
2021/12/20 06:22:31;;;;;;;;;7.00;6.50;;;;;7.76;49.25;98564.66;6121567;28;98393;-66
2021/12/20 06:25:34;;;;;;;;;8.00;7.60;;;;;7.79;49.09;98573.09;6129923;28;96767;-65
2021/12/20 06:28:39;;;;;;;;;8.00;6.33;;;;;7.84;49.12;98572.44;6140698;28;96785;-66
2021/12/20 06:31:42;;;;;;;;;9.00;7.60;;;;;7.75;48.97;98566.50;6137337;28;96967;-66
2021/12/20 06:34:46;;;;;;;;;7.80;6.80;;;;;7.80;49.42;98579.28;6136770;28;96555;-66
2021/12/20 06:37:59;;;;;;;;;8.25;8.00;;;;;7.73;49.69;98581.16;6124232;28;97253;-66
2021/12/20 06:41:02;;;;;;;;;8.60;8.00;;;;;7.77;49.84;98585.09;6137996;28;97153;-65
2021/12/20 06:44:08;;;;;;;;;8.60;7.60;;;;;7.69;49.64;98586.13;6141107;28;97478;-64
2021/12/20 06:47:12;;;;;;;;;5.60;5.60;;;;;7.57;50.10;98593.19;6122562;28;96500;-66
2021/12/20 06:50:15;;;;;;;;;8.00;6.75;;;;;7.61;49.98;98604.31;6113239;28;98981;-66
2021/12/20 06:53:19;;;;;;;;;8.00;7.40;;;;;7.60;50.60;98603.47;6104478;28;96804;-65
2021/12/20 06:56:22;;;;;;;;;8.67;7.00;;;;;7.59;50.92;98604.50;6122474;28;97177;-66
2021/12/20 06:59:27;;;;;;;;;8.20;7.20;;;;;7.61;51.01;98602.44;6126755;28;97423;-65
2021/12/20 07:02:30;;;;;;;;;11.00;10.80;;;;;7.54;50.87;98582.03;6138919;28;98378;-66
2021/12/20 07:05:34;;;;;;;;;8.50;8.50;;;;;7.44;51.39;98598.53;6124725;28;99545;-68
2021/12/20 07:08:38;;;;;;;;;7.00;7.00;;;;;7.57;51.24;98608.44;6140795;28;96485;-65
2021/12/20 07:11:43;;;;;;;;;8.40;7.80;;;;;7.62;51.06;98605.97;6138823;28;96430;-65
2021/12/20 07:14:50;;;;;;;;;9.40;8.00;;;;;7.61;51.10;98612.34;6141228;28;96591;-65
2021/12/20 07:17:54;;;;;;;;;8.80;8.40;;;;;7.73;50.92;98599.94;6136991;28;96567;-67
2021/12/20 07:20:57;;;;;;;;;10.00;7.80;;;;;7.72;50.81;98606.34;6123423;28;98313;-66
2021/12/20 07:24:00;;;;;;;;;9.25;9.00;;;;;7.63;50.74;98608.41;6133225;28;97495;-65
2021/12/20 07:27:06;;;;;;;;;8.60;8.00;;;;;7.64;50.79;98604.72;6123772;28;99554;-65
2021/12/20 07:30:12;;;;;;;;;10.00;9.00;;;;;7.68;50.72;98615.84;6125422;28;96472;-64
2021/12/20 07:33:15;;;;;;;;;8.75;8.00;;;;;7.67;50.64;98609.63;6125488;28;96822;-64
2021/12/20 07:36:22;;;;;;;;;9.40;8.40;;;;;7.56;50.65;98590.69;6139446;28;97344;-65
2021/12/20 07:39:25;;;;;;;;;9.00;9.00;;;;;7.80;50.51;98617.69;6138556;28;96662;-64
2021/12/20 07:42:28;;;;;;;;;8.00;8.00;;;;;7.77;50.43;98615.41;6138239;28;96701;-67
2021/12/20 07:45:35;;;;;;;;;7.80;7.20;;;;;7.75;50.34;98612.13;6117163;28;97110;-68
2021/12/20 07:48:39;;;;;;;;;8.25;8.00;;;;;7.77;50.24;98609.22;6138301;28;96620;-68
2021/12/20 07:51:43;;;;;;;;;11.00;9.50;;;;;7.64;50.41;98599.34;6119525;28;98185;-66
2021/12/20 07:54:46;;;;;;;;;10.00;9.00;;;;;7.47;50.68;98594.63;6135884;28;96611;-67
2021/12/20 07:57:50;;;;;;;;;9.20;9.20;;;;;7.74;50.57;98612.31;6120782;28;96660;-68
2021/12/20 08:00:55;;;;;;;;;11.00;10.00;;;;;7.79;50.56;98607.16;6138893;28;97165;-68
2021/12/20 08:03:58;;;;;;;;;11.60;11.00;;;;;7.61;50.68;98623.91;6129708;28;96856;-68
2021/12/20 08:07:02;;;;;;;;;9.00;8.50;;;;;7.64;50.54;98622.66;6136042;28;96460;-65
2021/12/20 08:10:06;;;;;;;;;9.50;9.25;;;;;7.60;50.70;98613.38;6137124;28;97899;-66
2021/12/20 08:13:10;;;;;;;;;11.00;10.00;;;;;7.75;50.60;98632.75;6121191;28;97384;-66
2021/12/20 08:16:19;;;;;;;;;12.00;10.00;;;;;7.83;50.30;98662.03;6139808;28;97032;-66
2021/12/20 08:19:22;;;;;;;;;12.40;10.40;;;;;7.90;50.26;98646.75;6119897;28;96620;-67
2021/12/20 08:22:25;;;;;;;;;12.40;11.40;;;;;7.98;49.92;98643.00;6122293;28;100025;-66
2021/12/20 08:25:29;;;;;;;;;11.60;10.00;;;;;7.91;49.63;98648.41;6126422;28;96579;-66
2021/12/20 08:28:33;;;;;;;;;8.00;7.80;;;;;7.90;49.89;98654.00;6123280;28;98485;-65
2021/12/20 08:31:39;;;;;;;;;9.00;8.40;;;;;7.82;49.85;98637.06;6137935;28;97693;-67
2021/12/20 08:34:42;;;;;;;;;11.00;9.00;;;;;7.91;49.56;98655.66;6105754;28;97724;-66
2021/12/20 08:37:47;;;;;;;;;10.60;9.20;;;;;7.90;49.51;98664.72;6135602;28;98094;-66
2021/12/20 08:40:50;;;;;;;;;9.25;8.00;;;;;8.01;49.86;98669.47;6134691;28;96885;-66
2021/12/20 08:43:53;;;;;;;;;8.20;7.80;;;;;8.12;49.57;98674.97;6131839;28;97011;-65
2021/12/20 08:46:59;;;;;;;;;9.60;9.00;;;;;8.13;49.22;98670.44;6136982;28;97421;-67
2021/12/20 08:50:06;;;;;;;;;9.00;8.00;;;;;8.07;49.40;98660.53;6135363;28;97445;-67
2021/12/20 08:53:10;;;;;;;;;9.00;8.00;;;;;8.11;49.16;98661.78;6136702;28;96738;-66
2021/12/20 08:56:13;;;;;;;;;11.00;9.00;;;;;8.15;48.85;98669.22;6135846;28;97481;-66
2021/12/20 08:59:17;;;;;;;;;10.60;9.80;;;;;8.20;48.93;98661.34;6136846;28;96705;-67
2021/12/20 09:02:21;;;;;;;;;9.00;8.60;;;;;8.25;48.70;98663.41;6137220;28;97387;-64
2021/12/20 09:05:26;;;;;;;;;10.25;9.00;;;;;8.27;48.57;98661.31;6138630;28;98547;-66
2021/12/20 09:08:30;;;;;;;;;10.60;9.00;;;;;8.12;48.71;98666.09;6144209;28;97541;-65
2021/12/20 09:11:34;;;;;;;;;9.00;8.40;;;;;8.04;48.95;98664.47;6124005;28;96782;-65
2021/12/20 09:14:47;;;;;;;;;10.60;9.60;;;;;8.15;48.70;98665.69;6138395;28;97813;-65
2021/12/20 09:17:53;;;;;;;;;10.40;10.00;;;;;8.14;48.94;98670.25;6122635;28;96648;-66
2021/12/20 09:20:57;;;;;;;;;11.00;10.00;;;;;8.11;48.93;98676.00;6141468;28;96679;-66
2021/12/20 09:24:01;;;;;;;;;10.00;10.00;;;;;8.10;48.83;98666.34;6139169;28;97488;-66
2021/12/20 09:27:06;;;;;;;;;13.00;11.00;;;;;8.04;48.79;98672.53;6137776;28;97586;-65
2021/12/20 09:30:10;;;;;;;;;8.50;8.00;;;;;8.07;48.65;98671.28;6138417;28;98348;-69
2021/12/20 09:33:16;;;;;;;;;11.00;10.00;;;;;8.11;48.73;98672.53;6102389;28;97018;-68
2021/12/20 09:36:19;;;;;;;;;8.60;8.60;;;;;8.20;48.84;98668.56;6139681;28;97517;-68
2021/12/20 09:39:23;;;;;;;;;11.00;11.00;;;;;8.24;48.47;98673.31;6137751;28;97606;-66
2021/12/20 09:42:27;;;;;;;;;11.40;10.60;;;;;8.38;48.31;98676.78;6141297;28;97620;-66
2021/12/20 09:45:31;;;;;;;;;9.00;8.00;;;;;8.35;47.95;98673.72;6139483;28;98523;-66
2021/12/20 09:48:37;;;;;;;;;9.50;8.00;;;;;8.27;48.09;98677.41;6139989;28;97524;-66
2021/12/20 09:51:40;;;;;;;;;7.40;7.00;;;;;8.27;48.18;98677.41;6138649;28;96964;-67
2021/12/20 09:54:44;;;;;;;;;10.00;9.00;;;;;8.28;48.28;98679.06;6121993;28;98280;-66
2021/12/20 09:57:50;;;;;;;;;9.00;8.00;;;;;8.31;47.89;98667.91;6140939;28;96855;-67
2021/12/20 10:00:54;;;;;;;;;9.60;9.00;;;;;8.39;47.96;98672.25;6119828;28;97545;-65
2021/12/20 10:03:59;;;;;;;;;10.00;9.00;;;;;8.43;47.91;98673.47;6122981;28;96552;-67
2021/12/20 10:07:04;;;;;;;;;10.00;9.40;;;;;8.41;47.58;98664.78;6142512;28;96502;-65
2021/12/20 10:10:10;;;;;;;;;8.75;8.00;;;;;8.42;47.57;98674.50;6136091;28;97454;-66
2021/12/20 10:13:24;;;;;;;;;8.00;7.00;;;;;8.42;47.55;98677.19;6135237;28;99398;-67
2021/12/20 10:16:27;;;;;;;;;7.80;7.60;;;;;8.41;47.61;98678.22;6121174;28;96912;-67
2021/12/20 10:19:34;;;;;;;;;10.00;9.00;;;;;8.42;47.63;98669.94;6136280;28;97493;-66
2021/12/20 10:22:43;;;;;;;;;8.50;8.00;;;;;8.54;47.48;98686.25;6101601;28;97723;-66
2021/12/20 10:25:49;;;;;;;;;9.00;7.40;;;;;8.42;47.30;98678.00;6136789;28;96816;-65
2021/12/20 10:28:54;;;;;;;;;6.60;6.60;;;;;8.60;46.86;98680.03;6136200;28;97920;-65
2021/12/20 10:31:58;;;;;;;;;9.00;7.00;;;;;8.54;47.17;98687.06;6137721;28;97382;-65
2021/12/20 10:35:03;;;;;;;;;10.00;9.00;;;;;8.55;47.12;98674.47;6137578;28;96544;-67
2021/12/20 10:38:21;;;;;;;;;8.80;8.80;;;;;8.51;46.96;98683.97;6137710;28;97478;-66
2021/12/20 10:41:33;;;;;;;;;6.00;5.00;;;;;8.52;46.52;98686.44;6132402;28;97942;-66
2021/12/20 10:44:36;;;;;;;;;6.00;6.00;;;;;8.46;46.74;98679.22;6137126;28;97294;-65
2021/12/20 10:47:39;;;;;;;;;5.00;5.00;;;;;8.51;46.85;98684.78;6119731;28;98193;-65
2021/12/20 10:50:44;;;;;;;;;7.00;7.00;;;;;8.47;46.94;98674.69;6119374;28;96642;-67
2021/12/20 10:53:54;;;;;;;;;8.00;7.00;;;;;8.51;47.00;98663.28;6138987;28;96576;-66
2021/12/20 10:57:01;;;;;;;;;5.00;5.00;;;;;8.57;46.90;98669.69;6138990;28;97438;-66
2021/12/20 11:00:16;;;;;;;;;8.00;7.00;;;;;8.47;47.03;98677.38;6139233;28;97556;-65
2021/12/20 11:03:28;;;;;;;;;7.75;6.75;;;;;8.60;46.98;98671.97;6138966;28;97902;-65
2021/12/20 11:07:03;;;;;;;;;5.00;5.00;;;;;8.63;46.78;98672.34;6122284;28;99436;-66
2021/12/20 11:10:08;;;;;;;;;8.80;7.00;;;;;8.74;46.76;98678.09;6134686;28;97397;-64
2021/12/20 11:13:16;;;;;;;;;7.00;6.00;;;;;8.47;47.04;98678.19;6138061;28;96983;-65
2021/12/20 11:16:27;;;;;;;;;6.00;6.00;;;;;8.46;47.32;98681.91;6135678;28;97288;-66
2021/12/20 11:19:33;;;;;;;;;5.00;5.00;;;;;8.38;47.79;98684.84;6136044;28;97461;-65
2021/12/20 11:22:38;;;;;;;;;7.60;6.00;;;;;8.48;47.78;98689.78;6117829;28;97180;-65
2021/12/20 11:25:42;;;;;;;;;8.00;7.60;;;;;8.51;48.08;98689.34;6135066;28;97495;-67
2021/12/20 11:28:45;;;;;;;;;7.00;7.00;;;;;8.50;47.98;98688.50;6116745;28;96806;-66
2021/12/20 11:31:50;;;;;;;;;8.00;7.25;;;;;8.37;48.26;98688.56;6134920;28;96679;-65
2021/12/20 11:34:54;;;;;;;;;8.00;7.80;;;;;8.38;48.38;98687.53;6138089;28;96423;-65
2021/12/20 11:37:58;;;;;;;;;7.00;6.00;;;;;8.47;48.32;98693.50;6141427;28;97678;-63
2021/12/20 11:41:02;;;;;;;;;6.00;5.60;;;;;8.42;48.21;98687.94;6119539;28;96929;-64
2021/12/20 11:44:08;;;;;;;;;8.00;8.00;;;;;8.41;48.19;98679.03;6133187;28;97397;-64
2021/12/20 11:47:21;;;;;;;;;7.20;7.00;;;;;8.38;47.83;98662.53;6134016;28;97165;-64
2021/12/20 11:50:33;;;;;;;;;7.00;6.20;;;;;8.58;47.63;98682.91;6136627;28;99443;-64
2021/12/20 11:53:40;;;;;;;;;7.00;6.40;;;;;8.68;47.28;98671.69;6138382;28;97331;-64
2021/12/20 11:56:43;;;;;;;;;7.00;7.00;;;;;8.78;46.91;98682.81;6135219;28;98193;-66
2021/12/20 11:59:50;;;;;;;;;7.20;6.20;;;;;8.80;47.03;98690.63;6133967;28;97475;-66
2021/12/20 12:02:57;;;;;;;;;6.00;6.00;;;;;8.53;46.60;98645.09;6134411;28;97792;-66
2021/12/20 12:06:02;;;;;;;;;7.20;7.00;;;;;8.48;46.53;98695.16;6134125;28;96596;-66
2021/12/20 12:09:06;;;;;;;;;6.00;5.00;;;;;8.55;46.37;98699.44;6138339;28;98065;-65
2021/12/20 12:12:31;;;;;;;;;7.00;6.00;;;;;8.40;46.24;98690.03;6134858;28;97377;-67
2021/12/20 12:15:52;;;;;;;;;5.00;4.20;;;;;8.09;46.22;98669.22;6134573;28;97402;-67
2021/12/20 12:18:58;;;;;;;;;5.75;4.50;;;;;8.41;46.54;98697.00;6116479;28;96574;-66
2021/12/20 12:22:02;;;;;;;;;5.00;4.00;;;;;8.44;46.00;98702.81;6129417;28;97168;-66
2021/12/20 12:25:11;;;;;;;;;6.00;6.00;;;;;8.42;46.19;98709.41;6135384;28;97251;-64
2021/12/20 12:28:15;;;;;;;;;6.20;6.20;;;;;8.33;46.26;98683.84;6133507;28;96599;-65
2021/12/20 12:31:18;;;;;;;;;7.50;7.00;;;;;8.61;46.35;98708.50;6134290;28;96901;-65
2021/12/20 12:34:22;;;;;;;;;6.00;6.00;;;;;8.47;45.93;98688.13;6135057;28;96752;-65
2021/12/20 12:37:33;;;;;;;;;5.20;5.00;;;;;8.50;45.96;98701.16;6132043;28;98406;-66
2021/12/20 12:40:38;;;;;;;;;8.00;7.00;;;;;8.60;46.11;98702.31;6129070;28;97458;-66
2021/12/20 12:44:05;;;;;;;;;7.00;7.00;;;;;8.66;45.80;98704.16;6116908;28;96693;-68
2021/12/20 12:47:12;;;;;;;;;7.80;7.00;;;;;8.49;45.72;98703.00;6129660;28;97335;-66
2021/12/20 12:50:26;;;;;;;;;5.75;5.75;;;;;8.26;46.56;98706.13;6133884;28;97503;-66
2021/12/20 12:53:40;;;;;;;;;4.80;4.20;;;;;8.40;47.07;98698.09;6133252;28;97512;-65
2021/12/20 12:56:46;;;;;;;;;7.00;7.00;;;;;8.34;47.42;98699.75;6133985;28;96654;-66
2021/12/20 13:00:15;;;;;;;;;9.00;8.40;;;;;8.29;46.55;98707.59;6129987;28;97253;-67
2021/12/20 13:03:19;;;;;;;;;8.00;7.00;;;;;8.26;47.55;98702.63;6126427;28;96679;-67
2021/12/20 13:06:22;;;;;;;;;8.00;7.20;;;;;8.18;47.68;98706.38;6137351;28;97007;-66
2021/12/20 13:09:32;;;;;;;;;8.00;8.00;;;;;8.04;47.88;98718.19;6119504;28;96997;-66
2021/12/20 13:12:43;;;;;;;;;6.80;6.80;;;;;8.04;48.10;98718.19;6122154;28;97453;-64
2021/12/20 13:15:52;;;;;;;;;9.00;8.00;;;;;8.10;47.47;98711.97;6133729;28;98351;-67
2021/12/20 13:18:58;;;;;;;;;10.00;8.00;;;;;8.04;47.37;98722.72;6103407;28;100143;-65
2021/12/20 13:22:05;;;;;;;;;8.50;7.50;;;;;8.04;47.26;98720.03;6133770;28;97475;-66
2021/12/20 13:25:08;;;;;;;;;6.33;6.00;;;;;8.14;47.40;98734.69;6130253;28;97107;-66
2021/12/20 13:28:16;;;;;;;;;8.00;7.00;;;;;8.27;47.09;98748.06;6134455;28;96517;-69
2021/12/20 13:31:21;;;;;;;;;8.40;8.00;;;;;8.36;47.00;98737.13;6133178;28;96712;-67
2021/12/20 13:34:27;;;;;;;;;9.00;7.00;;;;;8.22;46.59;98730.94;6122007;28;97523;-66
2021/12/20 13:37:35;;;;;;;;;6.80;6.80;;;;;8.40;46.58;98733.81;6129533;28;96939;-65
2021/12/20 13:40:43;;;;;;;;;8.00;7.00;;;;;8.39;45.81;98736.72;6130552;28;97917;-65
2021/12/20 13:43:51;;;;;;;;;9.00;8.00;;;;;8.35;45.60;98739.00;6131439;28;96831;-67
2021/12/20 13:46:56;;;;;;;;;6.00;6.00;;;;;8.42;45.45;98741.66;6135625;28;97914;-68
2021/12/20 13:50:15;;;;;;;;;6.60;5.60;;;;;8.38;45.07;98743.13;6117707;28;96723;-66
2021/12/20 13:53:28;;;;;;;;;6.00;5.00;;;;;8.37;44.70;98746.84;6140015;28;96498;-66
2021/12/20 13:56:31;;;;;;;;;4.00;4.00;;;;;8.35;45.00;98762.34;6136112;28;97725;-67
2021/12/20 13:59:40;;;;;;;;;7.00;5.00;;;;;8.35;44.70;98765.88;6122278;28;96635;-68
2021/12/20 14:02:45;;;;;;;;;6.00;6.00;;;;;8.28;45.06;98752.41;6136278;28;96766;-66
2021/12/20 14:05:50;;;;;;;;;8.00;7.00;;;;;8.37;45.40;98760.25;6121070;28;97592;-66
2021/12/20 14:09:07;;;;;;;;;7.40;6.00;;;;;8.33;45.17;98769.78;6120988;28;98288;-68
2021/12/20 14:12:15;;;;;;;;;5.00;5.00;;;;;8.28;44.88;98765.84;6137097;28;96995;-66
2021/12/20 14:15:22;;;;;;;;;7.00;6.00;;;;;8.35;44.72;98767.72;6137536;28;97193;-67
2021/12/20 14:18:34;;;;;;;;;6.80;5.40;;;;;8.38;44.36;98772.66;6122371;28;97806;-66
2021/12/20 14:21:39;;;;;;;;;6.00;5.00;;;;;8.39;44.46;98771.63;6136433;28;96768;-67
2021/12/20 14:24:42;;;;;;;;;5.60;5.60;;;;;8.38;44.31;98773.50;6106110;28;99736;-68
2021/12/20 14:28:00;;;;;;;;;7.00;6.00;;;;;8.38;44.09;98778.03;6138206;28;97805;-68
2021/12/20 14:31:09;;;;;;;;;5.00;5.00;;;;;8.24;43.91;98778.03;6139227;28;97765;-67
2021/12/20 14:34:12;;;;;;;;;5.00;5.00;;;;;8.11;44.29;98772.66;6141133;28;96665;-67
2021/12/20 14:37:17;;;;;;;;;7.00;6.00;;;;;8.14;44.62;98758.84;6138569;28;96525;-67
2021/12/20 14:40:40;;;;;;;;;6.00;5.00;;;;;8.19;44.95;98764.41;6138884;28;97223;-66
2021/12/20 14:43:44;;;;;;;;;10.00;8.00;;;;;8.10;45.43;98768.38;6128151;28;97930;-66